createdAt,value
2022-09-02T00:01:31.395Z,94427.72
2022-09-02T00:04:05.443Z,94427.72
2022-09-02T00:06:33.283Z,94423.25
2022-09-02T00:09:01.056Z,94412.00
2022-09-02T00:11:30.856Z,94417.56
2022-09-02T00:13:58.567Z,94412.47
2022-09-02T00:16:26.086Z,94402.59
2022-09-02T00:18:53.755Z,94399.22
2022-09-02T00:21:21.665Z,94407.69
2022-09-02T00:23:48.672Z,94408.31
2022-09-02T00:26:15.397Z,94403.38
2022-09-02T00:28:51.176Z,94396.91
2022-09-02T00:31:24.974Z,94397.97
2022-09-02T00:33:51.996Z,94390.28
2022-09-02T00:36:19.191Z,94392.88
2022-09-02T00:38:46.019Z,94396.59
2022-09-02T00:41:13.683Z,94387.81
2022-09-02T00:43:56.487Z,94391.94
2022-09-02T00:46:26.109Z,94387.31
2022-09-02T00:49:08.538Z,94384.25
2022-09-02T00:51:44.740Z,94372.22
2022-09-02T00:54:13.860Z,94384.69
2022-09-02T00:56:43.776Z,94382.41
2022-09-02T00:59:15.882Z,94377.00
2022-09-02T01:01:42.614Z,94379.16
2022-09-02T01:04:12.431Z,94379.75
2022-09-02T01:06:39.908Z,94379.94
2022-09-02T01:09:12.044Z,94387.78
2022-09-02T01:11:47.971Z,94383.31
2022-09-02T01:14:16.613Z,94383.63
2022-09-02T01:16:50.439Z,94385.00
2022-09-02T01:19:33.743Z,94381.59
2022-09-02T01:22:01.164Z,94374.69
2022-09-02T01:24:31.750Z,94367.25
2022-09-02T01:26:59.289Z,94362.19
2022-09-02T01:29:27.832Z,94372.66
2022-09-02T01:31:54.893Z,94382.38
2022-09-02T01:34:21.548Z,94371.75
2022-09-02T01:36:48.189Z,94375.44
2022-09-02T01:39:15.555Z,94365.56
2022-09-02T01:41:43.187Z,94375.28
2022-09-02T01:44:10.526Z,94377.44
2022-09-02T01:46:37.296Z,94367.53
2022-09-02T01:49:04.703Z,94360.75
2022-09-02T01:51:31.438Z,94366.13
2022-09-02T01:53:59.040Z,94369.53
2022-09-02T01:56:25.720Z,94363.53
2022-09-02T01:58:52.798Z,94359.66
2022-09-02T02:01:20.134Z,94366.13
2022-09-02T02:03:47.786Z,94366.00
2022-09-02T02:06:17.596Z,94364.28
2022-09-02T02:08:45.282Z,94362.44
2022-09-02T02:11:18.838Z,94366.28
2022-09-02T02:13:49.780Z,94364.75
2022-09-02T02:16:16.914Z,94358.75
2022-09-02T02:18:43.602Z,94366.59
2022-09-02T02:21:11.256Z,94362.44
2022-09-02T02:23:37.951Z,94360.75
2022-09-02T02:26:06.526Z,94363.38
2022-09-02T02:28:33.342Z,94362.88
2022-09-02T02:31:02.732Z,94363.47
2022-09-02T02:33:30.530Z,94355.16
2022-09-02T02:36:06.085Z,94358.56
2022-09-02T02:38:37.680Z,94356.72
2022-09-02T02:41:06.348Z,94348.41
2022-09-02T02:43:34.421Z,94356.56
2022-09-02T02:46:01.196Z,94357.94
2022-09-02T02:48:27.878Z,94361.63
2022-09-02T02:50:54.975Z,94351.75
2022-09-02T02:53:21.735Z,94350.81
2022-09-02T02:55:49.844Z,94358.38
2022-09-02T02:58:17.444Z,94351.28
2022-09-02T03:00:45.556Z,94356.97
2022-09-02T03:03:14.906Z,94355.75
2022-09-02T03:05:41.548Z,94355.00
2022-09-02T03:08:10.452Z,94357.63
2022-09-02T03:10:41.184Z,94346.97
2022-09-02T03:13:10.480Z,94348.34
2022-09-02T03:15:39.488Z,94345.41
2022-09-02T03:18:06.365Z,94349.88
2022-09-02T03:20:33.180Z,94342.34
2022-09-02T03:23:04.686Z,94338.50
2022-09-02T03:25:35.916Z,94337.72
2022-09-02T03:28:10.164Z,94336.94
2022-09-02T03:30:39.696Z,94336.78
2022-09-02T03:33:07.083Z,94335.06
2022-09-02T03:35:39.573Z,94338.16
2022-09-02T03:38:07.800Z,94340.00
2022-09-02T03:40:34.927Z,94342.78
2022-09-02T03:43:02.264Z,94337.41
2022-09-02T03:45:30.982Z,94336.78
2022-09-02T03:48:02.301Z,94332.44
2022-09-02T03:50:37.771Z,94335.38
2022-09-02T03:53:05.640Z,94335.66
2022-09-02T03:55:33.343Z,94332.59
2022-09-02T03:58:03.402Z,94337.66
2022-09-02T04:00:33.598Z,94329.34
2022-09-02T04:03:03.872Z,94332.28
2022-09-02T04:05:31.819Z,94329.16
2022-09-02T04:08:00.659Z,94319.94
2022-09-02T04:10:28.497Z,94311.59
2022-09-02T04:12:55.551Z,94319.16
2022-09-02T04:15:22.703Z,94314.22
2022-09-02T04:17:50.909Z,94317.94
2022-09-02T04:20:20.114Z,94311.44
2022-09-02T04:22:46.752Z,94311.28
2022-09-02T04:25:13.571Z,94316.50
2022-09-02T04:27:40.790Z,94318.03
2022-09-02T04:30:09.175Z,94311.75
2022-09-02T04:32:40.906Z,94321.16
2022-09-02T04:35:09.187Z,94311.28
2022-09-02T04:37:36.952Z,94310.81
2022-09-02T04:40:04.492Z,94307.09
2022-09-02T04:42:31.197Z,94310.50
2022-09-02T04:44:57.992Z,94308.19
2022-09-02T04:47:26.697Z,94312.66
2022-09-02T04:49:54.242Z,94310.31
2022-09-02T04:52:21.530Z,94312.19
2022-09-02T04:54:48.932Z,94319.28
2022-09-02T04:57:16.608Z,94316.16
2022-09-02T04:59:44.069Z,94311.56
2022-09-02T05:02:12.133Z,94315.41
2022-09-02T05:04:39.889Z,94319.28
2022-09-02T05:07:13.181Z,94322.16
2022-09-02T05:09:44.436Z,94314.97
2022-09-02T05:12:11.532Z,94313.25
2022-09-02T05:14:43.895Z,94319.28
2022-09-02T05:17:10.922Z,94310.50
2022-09-02T05:19:41.430Z,94316.69
2022-09-02T05:22:08.420Z,94316.69
2022-09-02T05:24:38.580Z,94320.38
2022-09-02T05:27:09.835Z,94316.69
2022-09-02T05:29:36.979Z,94315.91
2022-09-02T05:32:04.972Z,94322.56
2022-09-02T05:34:33.467Z,94321.31
2022-09-02T05:37:03.379Z,94320.13
2022-09-02T05:39:32.630Z,94317.94
2022-09-02T05:42:00.665Z,94314.28
2022-09-02T05:44:29.211Z,94315.81
2022-09-02T05:46:57.153Z,94324.13
2022-09-02T05:49:23.852Z,94323.06
2022-09-02T05:51:58.654Z,94318.31
2022-09-02T05:54:36.845Z,94323.84
2022-09-02T05:57:11.574Z,94320.03
2022-09-02T05:59:44.135Z,94322.34
2022-09-02T06:02:19.151Z,94324.31
2022-09-02T06:04:47.000Z,94321.41
2022-09-02T06:07:16.145Z,94321.88
2022-09-02T06:09:45.747Z,94318.66
2022-09-02T06:12:14.842Z,94315.44
2022-09-02T06:14:42.877Z,94318.66
2022-09-02T06:17:10.813Z,94316.69
2022-09-02T06:19:47.319Z,94319.75
2022-09-02T06:22:14.630Z,94316.69
2022-09-02T06:24:42.799Z,94320.69
2022-09-02T06:27:15.735Z,94313.13
2022-09-02T06:29:46.044Z,94313.59
2022-09-02T06:32:15.774Z,94314.25
2022-09-02T06:34:42.381Z,94310.22
2022-09-02T06:37:09.015Z,94321.66
2022-09-02T06:39:43.817Z,94317.34
2022-09-02T06:42:16.016Z,94311.63
2022-09-02T06:44:58.802Z,94314.09
2022-09-02T06:47:25.439Z,94314.69
2022-09-02T06:49:52.069Z,94320.09
2022-09-02T06:52:20.927Z,94313.91
2022-09-02T06:54:50.007Z,94320.41
2022-09-02T06:57:17.295Z,94312.22
2022-09-02T06:59:44.255Z,94325.50
2022-09-02T07:02:12.577Z,94319.66
2022-09-02T07:05:00.113Z,94314.84
2022-09-02T07:07:26.785Z,94312.69
2022-09-02T07:10:00.604Z,94317.13
2022-09-02T07:12:27.896Z,94321.16
2022-09-02T07:15:08.698Z,94320.34
2022-09-02T07:17:38.880Z,94314.31
2022-09-02T07:20:10.438Z,94317.41
2022-09-02T07:22:48.885Z,94315.25
2022-09-02T07:25:18.855Z,94316.16
2022-09-02T07:27:47.851Z,94314.09
2022-09-02T07:30:14.600Z,94307.75
2022-09-02T07:32:44.347Z,94315.59
2022-09-02T07:35:11.063Z,94305.56
2022-09-02T07:37:38.578Z,94297.19
2022-09-02T07:40:11.519Z,94305.47
2022-09-02T07:42:38.681Z,94304.94
2022-09-02T07:45:06.761Z,94300.88
2022-09-02T07:47:34.686Z,94303.94
2022-09-02T07:50:21.503Z,94307.66
2022-09-02T07:52:58.162Z,94298.97
2022-09-02T07:55:27.041Z,94299.41
2022-09-02T07:57:55.526Z,94300.28
2022-09-02T08:00:27.413Z,94294.09
2022-09-02T08:02:57.184Z,94289.72
2022-09-02T08:05:29.489Z,94292.09
2022-09-02T08:07:56.064Z,94300.19
2022-09-02T08:10:25.893Z,94293.63
2022-09-02T08:12:52.983Z,94295.50
2022-09-02T08:15:22.525Z,94297.03
2022-09-02T08:17:49.618Z,94294.94
2022-09-02T08:20:17.520Z,94297.41
2022-09-02T08:22:47.947Z,94293.59
2022-09-02T08:25:21.176Z,94300.06
2022-09-02T08:27:47.847Z,94292.72
2022-09-02T08:30:14.528Z,94294.41
2022-09-02T08:32:41.902Z,94293.31
2022-09-02T08:35:10.342Z,94294.00
2022-09-02T08:37:37.486Z,94291.38
2022-09-02T08:40:07.567Z,94291.28
2022-09-02T08:42:41.847Z,94296.91
2022-09-02T08:45:20.049Z,94291.22
2022-09-02T08:47:53.006Z,94298.25
2022-09-02T08:50:20.576Z,94300.66
2022-09-02T08:53:02.507Z,94296.22
2022-09-02T08:55:39.995Z,94288.69
2022-09-02T09:00:42.443Z,94289.53
2022-09-02T09:03:33.650Z,94287.25
2022-09-02T09:06:16.299Z,94293.91
2022-09-02T09:08:57.470Z,94295.75
2022-09-02T09:11:34.834Z,94291.44
2022-09-02T09:14:06.444Z,94290.22
2022-09-02T09:16:44.372Z,94299.09
2022-09-02T09:19:22.510Z,94296.59
2022-09-02T09:21:49.144Z,94290.31
2022-09-02T09:24:49.819Z,94282.03
2022-09-02T09:27:19.825Z,94281.53
2022-09-02T09:29:50.195Z,94283.84
2022-09-02T09:32:22.683Z,94285.88
2022-09-02T09:34:52.367Z,94279.13
2022-09-02T09:37:42.302Z,94279.81
2022-09-02T09:40:17.893Z,94279.06
2022-09-02T09:42:49.698Z,94284.50
2022-09-02T09:45:24.089Z,94269.94
2022-09-02T09:48:29.982Z,94263.19
2022-09-02T09:50:56.500Z,94270.81
2022-09-02T09:53:25.582Z,94265.09
2022-09-02T09:55:55.253Z,94254.84
2022-09-02T09:58:23.457Z,94253.00
2022-09-02T10:00:56.391Z,94257.53
2022-09-02T10:03:33.080Z,94249.22
2022-09-02T10:06:17.988Z,94259.63
2022-09-02T10:08:56.842Z,94267.06
2022-09-02T10:11:26.396Z,94260.34
2022-09-02T10:13:59.731Z,94252.78
2022-09-02T10:16:50.055Z,94253.84
2022-09-02T10:19:31.298Z,94247.91
2022-09-02T10:21:58.130Z,94256.31
2022-09-02T10:24:56.026Z,94255.34
2022-09-02T10:27:37.424Z,94253.63
2022-09-02T10:30:41.199Z,94250.59
2022-09-02T10:33:25.318Z,94246.63
2022-09-02T10:35:57.912Z,94247.94
2022-09-02T10:38:46.687Z,94243.69
2022-09-02T10:41:27.246Z,94248.31
2022-09-02T10:43:59.876Z,94240.22
2022-09-02T10:46:34.438Z,94244.59
2022-09-02T10:49:16.479Z,94234.84
2022-09-02T10:51:52.179Z,94230.47
2022-09-02T10:55:17.582Z,94231.06
2022-09-02T10:57:52.881Z,94227.41
2022-09-02T11:00:21.427Z,94227.06
2022-09-02T11:02:54.503Z,94213.84
2022-09-02T11:05:59.879Z,94217.59
2022-09-02T11:08:49.343Z,94213.53
2022-09-02T11:11:21.931Z,94215.63
2022-09-02T11:14:15.617Z,94224.00
2022-09-02T11:17:18.789Z,94208.47
2022-09-02T11:20:04.239Z,94221.00
2022-09-02T11:22:48.961Z,94203.34
2022-09-02T11:25:15.596Z,94206.63
2022-09-02T11:27:52.818Z,94205.28
2022-09-02T11:30:22.321Z,94196.97
2022-09-02T11:33:34.649Z,94203.50
2022-09-02T11:36:01.605Z,94205.38
2022-09-02T11:38:43.750Z,94194.97
2022-09-02T11:41:43.467Z,94199.53
2022-09-02T11:44:31.548Z,94197.44
2022-09-02T11:47:31.999Z,94202.88
2022-09-02T11:50:23.119Z,94199.16
2022-09-02T11:53:17.128Z,94193.91
2022-09-02T11:55:56.242Z,94200.06
2022-09-02T11:58:38.377Z,94201.50
2022-09-02T12:01:15.070Z,94194.72
2022-09-02T12:04:27.532Z,94199.03
2022-09-02T12:07:07.873Z,94196.03
2022-09-02T12:09:52.982Z,94178.94
2022-09-02T12:12:42.930Z,94184.31
2022-09-02T12:15:17.638Z,94195.38
2022-09-02T12:17:50.941Z,94183.63
2022-09-02T12:20:36.480Z,94192.78
2022-09-02T12:23:03.629Z,94178.31
2022-09-02T12:25:34.016Z,94188.25
2022-09-02T12:28:19.187Z,94184.41
2022-09-02T12:30:56.512Z,94185.19
2022-09-02T12:33:34.983Z,94176.03
2022-09-02T12:36:04.822Z,94179.09
2022-09-02T12:38:34.078Z,94175.28
2022-09-02T12:41:07.718Z,94172.63
2022-09-02T12:43:41.657Z,94170.31
2022-09-02T12:46:23.016Z,94169.56
2022-09-02T12:49:05.758Z,94165.38
2022-09-02T12:51:57.522Z,94165.38
2022-09-02T12:54:41.543Z,94162.69
2022-09-02T12:57:10.258Z,94156.97
2022-09-02T12:59:41.412Z,94150.50
2022-09-02T13:02:26.868Z,94158.50
2022-09-02T13:04:56.255Z,94150.09
2022-09-02T13:07:44.522Z,94154.28
2022-09-02T13:10:14.534Z,94145.09
2022-09-02T13:13:18.266Z,94147.00
2022-09-02T13:16:16.944Z,94148.47
2022-09-02T13:19:11.005Z,94140.03
2022-09-02T13:22:04.569Z,94142.63
2022-09-02T13:25:01.246Z,94141.09
2022-09-02T13:27:46.541Z,94132.25
2022-09-02T13:30:26.265Z,94133.47
2022-09-02T13:33:00.225Z,94130.75
2022-09-02T13:35:28.823Z,94127.69
2022-09-02T13:37:59.794Z,94129.53
2022-09-02T13:40:37.229Z,94133.75
2022-09-02T13:43:12.804Z,94130.66
2022-09-02T13:45:40.136Z,94132.13
2022-09-02T13:48:19.273Z,94128.56
2022-09-02T13:50:48.893Z,94128.16
2022-09-02T13:53:45.841Z,94122.81
2022-09-02T13:56:17.693Z,94125.13
2022-09-02T13:58:51.990Z,94129.72
2022-09-02T14:01:24.964Z,94119.03
2022-09-02T14:03:54.766Z,94113.31
2022-09-02T14:06:25.263Z,94117.56
2022-09-02T14:08:55.758Z,94114.03
2022-09-02T14:11:23.022Z,94101.84
2022-09-02T14:13:51.035Z,94096.53
2022-09-02T14:16:24.423Z,94093.91
2022-09-02T14:19:14.447Z,94090.84
2022-09-02T14:21:48.212Z,94084.34
2022-09-02T14:24:19.952Z,94070.88
2022-09-02T14:26:49.899Z,94070.84
2022-09-02T14:29:18.975Z,94060.19
2022-09-02T14:31:46.544Z,94066.69
2022-09-02T14:34:32.286Z,94068.28
2022-09-02T14:36:58.946Z,94075.56
2022-09-02T14:39:25.678Z,94070.66
2022-09-02T14:41:54.830Z,94063.41
2022-09-02T14:44:34.649Z,94056.84
2022-09-02T14:47:07.482Z,94049.47
2022-09-02T14:49:41.974Z,94041.03
2022-09-02T14:52:23.382Z,94029.69
2022-09-02T14:54:53.091Z,94044.56
2022-09-02T14:57:28.707Z,94041.91
2022-09-02T15:00:02.306Z,94037.59
2022-09-02T15:02:32.677Z,94036.03
2022-09-02T15:05:01.388Z,94029.00
2022-09-02T15:07:28.747Z,94038.56
2022-09-02T15:09:55.434Z,94037.03
2022-09-02T15:12:34.063Z,94037.16
2022-09-02T15:15:01.047Z,94038.81
2022-09-02T15:17:29.514Z,94027.09
2022-09-02T15:19:56.600Z,94035.00
2022-09-02T15:22:23.912Z,94030.41
2022-09-02T15:24:51.833Z,94028.91
2022-09-02T15:27:21.494Z,94034.28
2022-09-02T15:29:49.029Z,94039.66
2022-09-02T15:32:16.212Z,94035.81
2022-09-02T15:34:42.791Z,94044.22
2022-09-02T15:37:12.799Z,94040.34
2022-09-02T15:39:40.783Z,94041.34
2022-09-02T15:42:07.502Z,94043.16
2022-09-02T15:44:34.158Z,94044.66
2022-09-02T15:47:00.768Z,94043.13
2022-09-02T15:49:27.559Z,94047.03
2022-09-02T15:51:55.223Z,94046.47
2022-09-02T15:54:23.888Z,94040.47
2022-09-02T15:56:55.500Z,94044.34
2022-09-02T15:59:22.478Z,94041.38
2022-09-02T16:01:51.865Z,94043.31
2022-09-02T16:04:18.570Z,94044.13
2022-09-02T16:06:52.316Z,94040.69
2022-09-02T16:09:19.847Z,94040.38
2022-09-02T16:11:52.600Z,94036.66
2022-09-02T16:14:21.393Z,94047.78
2022-09-02T16:16:49.888Z,94052.47
2022-09-02T16:19:21.317Z,94051.44
2022-09-02T16:21:49.295Z,94044.25
2022-09-02T16:24:15.942Z,94047.72
2022-09-02T16:26:42.621Z,94042.00
2022-09-02T16:29:16.001Z,94045.81
2022-09-02T16:31:45.890Z,94050.38
2022-09-02T16:34:24.072Z,94043.16
2022-09-02T16:36:51.780Z,94046.56
2022-09-02T16:39:19.838Z,94045.00
2022-09-02T16:41:52.186Z,94048.72
2022-09-02T16:44:24.063Z,94044.81
2022-09-02T16:46:52.502Z,94043.94
2022-09-02T16:49:21.908Z,94036.91
2022-09-02T16:51:50.848Z,94034.19
2022-09-02T16:54:30.876Z,94032.97
2022-09-02T16:56:59.595Z,94028.69
2022-09-02T16:59:26.202Z,94021.03
2022-09-02T17:01:52.925Z,94029.66
2022-09-02T17:04:19.584Z,94018.28
2022-09-02T17:06:46.187Z,94018.28
2022-09-02T17:09:12.802Z,94022.38
2022-09-02T17:11:41.321Z,94024.97
2022-09-02T17:14:18.048Z,94030.16
2022-09-02T17:16:47.151Z,94037.13
2022-09-02T17:19:20.837Z,94038.81
2022-09-02T17:21:56.904Z,94044.75
2022-09-02T17:24:27.691Z,94049.56
2022-09-02T17:26:56.264Z,94052.91
2022-09-02T17:29:48.980Z,94040.63
2022-09-02T17:32:15.865Z,94049.69
2022-09-02T17:34:42.448Z,94053.03
2022-09-02T17:37:09.129Z,94057.06
2022-09-02T17:39:35.759Z,94053.16
2022-09-02T17:42:05.263Z,94052.72
2022-09-02T17:44:35.920Z,94033.22
2022-09-02T17:47:07.563Z,94040.66
2022-09-02T17:49:37.760Z,94042.00
2022-09-02T17:52:07.417Z,94036.47
2022-09-02T17:54:38.623Z,94043.50
2022-09-02T17:57:17.385Z,94042.56
2022-09-02T17:59:51.940Z,94034.38
2022-09-02T18:02:43.356Z,94044.84
2022-09-02T18:05:21.381Z,94049.63
2022-09-02T18:08:39.256Z,94044.56
2022-09-02T18:11:07.796Z,94047.38
2022-09-02T18:13:34.385Z,94056.44
2022-09-02T18:16:28.753Z,94061.97
2022-09-02T18:19:06.618Z,94059.22
2022-09-02T18:21:59.860Z,94056.78
2022-09-02T18:25:04.196Z,94052.00
2022-09-02T18:27:40.770Z,94049.91
2022-09-02T18:30:10.336Z,94054.22
2022-09-02T18:32:59.393Z,94056.78
2022-09-02T18:35:44.110Z,94055.84
2022-09-02T18:38:19.486Z,94049.28
2022-09-02T18:40:57.011Z,94060.97
2022-09-02T18:43:55.399Z,94056.22
2022-09-02T18:46:24.986Z,94065.88
2022-09-02T18:49:03.472Z,94068.69
2022-09-02T18:51:39.005Z,94061.47
2022-09-02T18:54:23.039Z,94066.75
2022-09-02T18:56:58.841Z,94068.47
2022-09-02T18:59:42.071Z,94069.16
2022-09-02T19:02:23.936Z,94068.28
2022-09-02T19:04:50.651Z,94072.66
2022-09-02T19:07:38.499Z,94075.19
2022-09-02T19:10:06.386Z,94081.50
2022-09-02T19:12:34.991Z,94089.31
2022-09-02T19:15:06.214Z,94088.91
2022-09-02T19:17:32.710Z,94084.41
2022-09-02T19:19:59.259Z,94097.50
2022-09-02T19:22:28.346Z,94098.63
2022-09-02T19:25:02.849Z,94095.22
2022-09-02T19:27:33.755Z,94093.94
2022-09-02T19:30:08.479Z,94095.38
2022-09-02T19:32:37.902Z,94088.88
2022-09-02T19:35:16.297Z,94104.06
2022-09-02T19:37:45.070Z,94095.66
2022-09-02T19:40:12.325Z,94088.44
2022-09-02T19:42:39.028Z,94085.78
2022-09-02T19:45:06.120Z,94080.00
2022-09-02T19:50:21.070Z,94068.34
2022-09-02T19:52:49.403Z,94074.91
2022-09-02T19:55:18.344Z,94072.19
2022-09-02T19:57:45.787Z,94070.56
2022-09-02T20:00:14.065Z,94067.47
2022-09-02T20:02:40.983Z,94059.06
2022-09-02T20:05:12.960Z,94064.25
2022-09-02T20:07:40.615Z,94058.88
2022-09-02T20:10:08.844Z,94062.19
2022-09-02T20:12:36.475Z,94072.22
2022-09-02T20:15:04.877Z,94059.28
2022-09-02T20:17:31.686Z,94067.19
2022-09-02T20:20:01.294Z,94061.06
2022-09-02T20:22:31.734Z,94059.53
2022-09-02T20:24:58.428Z,94052.31
2022-09-02T20:27:54.813Z,94059.69
2022-09-02T20:30:21.719Z,94064.19
2022-09-02T20:32:57.381Z,94065.63
2022-09-02T20:35:34.014Z,94073.00
2022-09-02T20:38:20.548Z,94073.56
2022-09-02T20:41:20.103Z,94068.22
2022-09-02T20:44:11.451Z,94068.88
2022-09-02T20:46:41.035Z,94071.72
2022-09-02T20:49:41.884Z,94074.69
2022-09-02T20:52:19.515Z,94074.56
2022-09-02T20:54:48.137Z,94074.47
2022-09-02T20:57:36.932Z,94074.69
2022-09-02T21:00:08.880Z,94073.84
2022-09-02T21:02:57.840Z,94068.91
2022-09-02T21:05:32.923Z,94073.41
2022-09-02T21:08:12.880Z,94061.34
2022-09-02T21:10:45.904Z,94067.63
2022-09-02T21:13:27.536Z,94061.56
2022-09-02T21:15:57.327Z,94053.56
2022-09-02T21:18:44.529Z,94054.69
2022-09-02T21:21:43.086Z,94060.28
2022-09-02T21:24:19.020Z,94064.75
2022-09-02T21:27:25.399Z,94055.56
2022-09-02T21:30:04.588Z,94052.72
2022-09-02T21:32:45.334Z,94051.09
2022-09-02T21:35:42.528Z,94044.84
2022-09-02T21:38:22.287Z,94048.81
2022-09-02T21:41:27.176Z,94056.47
2022-09-02T21:44:11.392Z,94051.44
2022-09-02T21:47:01.591Z,94056.50
2022-09-02T21:49:39.441Z,94059.00
2022-09-02T21:52:15.061Z,94054.84
2022-09-02T21:55:01.259Z,94055.94
2022-09-02T21:57:37.571Z,94055.50
2022-09-02T22:00:12.990Z,94053.22
2022-09-02T22:03:10.390Z,94058.47
2022-09-02T22:06:13.636Z,94057.81
2022-09-02T22:08:48.390Z,94063.50
2022-09-02T22:11:41.610Z,94064.69
2022-09-02T22:14:14.851Z,94065.91
2022-09-02T22:16:47.136Z,94067.88
2022-09-02T22:19:14.594Z,94063.50
2022-09-02T22:21:48.535Z,94062.94
2022-09-02T22:24:20.303Z,94066.78
2022-09-02T22:26:54.421Z,94063.81
2022-09-02T22:29:45.727Z,94066.03
2022-09-02T22:32:31.796Z,94070.59
2022-09-02T22:35:22.882Z,94068.31
2022-09-02T22:37:58.378Z,94064.16
2022-09-02T22:40:32.381Z,94059.75
2022-09-02T22:43:06.944Z,94064.16
2022-09-02T22:46:01.615Z,94060.88
2022-09-02T22:48:57.644Z,94051.56
2022-09-02T22:51:50.035Z,94055.28
2022-09-02T22:54:17.474Z,94057.47
2022-09-02T22:56:52.885Z,94054.06
2022-09-02T22:59:50.192Z,94047.97
2022-09-02T23:02:18.054Z,94049.34
2022-09-02T23:05:37.689Z,94050.47
2022-09-02T23:08:08.933Z,94055.28
2022-09-02T23:10:54.329Z,94051.00
2022-09-02T23:13:42.822Z,94042.56
2022-09-02T23:16:19.975Z,94042.75
2022-09-02T23:19:11.923Z,94040.47
2022-09-02T23:21:54.405Z,94041.13
2022-09-02T23:24:53.181Z,94047.47
2022-09-02T23:27:45.062Z,94047.69
2022-09-02T23:30:14.748Z,94045.72
2022-09-02T23:33:02.650Z,94049.44
2022-09-02T23:35:48.167Z,94045.94
2022-09-02T23:38:22.775Z,94046.16
2022-09-02T23:41:18.457Z,94041.53
2022-09-02T23:43:45.747Z,94049.88
2022-09-02T23:46:47.335Z,94036.50
2022-09-02T23:49:36.204Z,94033.44
2022-09-02T23:52:24.009Z,94025.78
2022-09-02T23:55:11.929Z,94027.72
2022-09-02T23:57:42.633Z,94034.75
